createdAt,value
2019-02-17T00:00:23.596Z,16.75
2019-02-17T00:01:04.192Z,16.79
2019-02-17T00:01:44.843Z,16.78
2019-02-17T00:02:25.445Z,16.68
2019-02-17T00:03:06.255Z,16.71
2019-02-17T00:03:46.862Z,16.83
2019-02-17T00:04:27.496Z,16.73
2019-02-17T00:05:08.101Z,16.82
2019-02-17T00:05:48.715Z,16.78
2019-02-17T00:06:29.313Z,16.73
2019-02-17T00:07:09.907Z,16.76
2019-02-17T00:07:50.535Z,16.66
2019-02-17T00:08:31.119Z,16.76
2019-02-17T00:09:11.721Z,16.73
2019-02-17T00:09:52.311Z,16.75
2019-02-17T00:10:32.921Z,16.68
2019-02-17T00:11:13.545Z,16.75
2019-02-17T00:11:54.125Z,16.71
2019-02-17T00:12:34.839Z,16.71
2019-02-17T00:13:15.617Z,16.79
2019-02-17T00:13:56.233Z,16.67
2019-02-17T00:14:36.843Z,16.71
2019-02-17T00:15:17.433Z,16.71
2019-02-17T00:15:58.065Z,16.71
2019-02-17T00:16:38.707Z,16.78
2019-02-17T00:17:19.311Z,16.67
2019-02-17T00:17:59.928Z,16.75
2019-02-17T00:18:40.557Z,16.73
2019-02-17T00:19:21.207Z,16.64
2019-02-17T00:20:01.829Z,16.68
2019-02-17T00:20:42.457Z,16.76
2019-02-17T00:21:23.247Z,16.67
2019-02-17T00:22:03.871Z,16.67
2019-02-17T00:22:44.469Z,16.64
2019-02-17T00:23:25.063Z,16.67
2019-02-17T00:24:05.744Z,16.7
2019-02-17T00:24:46.544Z,16.73
2019-02-17T00:25:27.751Z,16.64
2019-02-17T00:26:08.793Z,16.68
2019-02-17T00:26:50.791Z,16.71
2019-02-17T00:27:31.503Z,16.7
2019-02-17T00:28:12.095Z,16.68
2019-02-17T00:28:59.068Z,16.73
2019-02-17T00:29:33.913Z,16.67
2019-02-17T00:30:14.511Z,16.73
2019-02-17T00:30:55.110Z,16.73
2019-02-17T00:31:35.902Z,16.67
2019-02-17T00:32:16.543Z,16.7
2019-02-17T00:32:57.141Z,16.73
2019-02-17T00:33:37.757Z,16.66
2019-02-17T00:34:18.386Z,16.67
2019-02-17T00:34:58.999Z,16.71
2019-02-17T00:35:39.617Z,16.73
2019-02-17T00:36:20.203Z,16.68
2019-02-17T00:37:00.906Z,16.7
2019-02-17T00:37:41.513Z,16.73
2019-02-17T00:38:22.223Z,16.71
2019-02-17T00:39:02.819Z,16.67
2019-02-17T00:39:43.421Z,16.71
2019-02-17T00:40:24.022Z,16.73
2019-02-17T00:41:04.621Z,16.73
2019-02-17T00:41:45.234Z,16.71
2019-02-17T00:42:25.821Z,16.73
2019-02-17T00:43:06.403Z,16.79
2019-02-17T00:43:46.995Z,16.73
2019-02-17T00:44:27.576Z,16.7
2019-02-17T00:45:08.175Z,16.68
2019-02-17T00:45:48.809Z,16.67
2019-02-17T00:46:29.381Z,16.7
2019-02-17T00:47:09.991Z,16.71
2019-02-17T00:47:50.576Z,16.75
2019-02-17T00:48:31.186Z,16.71
2019-02-17T00:49:11.783Z,16.71
2019-02-17T00:49:52.409Z,16.68
2019-02-17T00:50:33.007Z,16.68
2019-02-17T00:51:13.593Z,16.67
2019-02-17T00:51:54.187Z,16.7
2019-02-17T00:52:34.769Z,16.66
2019-02-17T00:53:15.366Z,16.7
2019-02-17T00:53:55.979Z,16.64
2019-02-17T00:54:36.613Z,16.7
2019-02-17T00:55:17.229Z,16.71
2019-02-17T00:55:57.845Z,16.64
2019-02-17T00:56:38.467Z,16.7
2019-02-17T00:57:19.066Z,16.64
2019-02-17T00:57:59.661Z,16.68
2019-02-17T00:58:40.291Z,16.71
2019-02-17T00:59:20.877Z,16.64
2019-02-17T01:00:01.476Z,16.67
2019-02-17T01:00:42.081Z,16.7
2019-02-17T01:01:22.679Z,16.71
2019-02-17T01:02:03.270Z,16.71
2019-02-17T01:02:43.947Z,16.71
2019-02-17T01:03:24.577Z,16.68
2019-02-17T01:04:05.171Z,16.68
2019-02-17T01:04:45.764Z,16.7
2019-02-17T01:05:26.367Z,16.67
2019-02-17T01:06:06.963Z,16.68
2019-02-17T01:06:47.569Z,16.73
2019-02-17T01:07:28.183Z,16.73
2019-02-17T01:08:08.791Z,16.68
2019-02-17T01:08:49.403Z,16.7
2019-02-17T01:09:29.991Z,16.66
2019-02-17T01:10:10.610Z,16.73
2019-02-17T01:10:51.209Z,16.67
2019-02-17T01:11:31.805Z,16.7
2019-02-17T01:12:12.397Z,16.67
2019-02-17T01:12:53.011Z,16.63
2019-02-17T01:13:33.616Z,16.7
2019-02-17T01:14:14.219Z,16.67
2019-02-17T01:14:54.822Z,16.67
2019-02-17T01:15:35.414Z,16.66
2019-02-17T01:16:16.034Z,16.7
2019-02-17T01:16:56.618Z,16.68
2019-02-17T01:17:37.204Z,16.67
2019-02-17T01:18:17.825Z,16.66
2019-02-17T01:18:58.415Z,16.66
2019-02-17T01:19:39.016Z,16.67
2019-02-17T01:20:19.608Z,16.61
2019-02-17T01:21:00.213Z,16.66
2019-02-17T01:21:40.806Z,16.67
2019-02-17T01:22:21.384Z,16.63
2019-02-17T01:23:01.974Z,16.67
2019-02-17T01:23:42.576Z,16.66
2019-02-17T01:24:23.197Z,16.66
2019-02-17T01:25:03.802Z,16.66
2019-02-17T01:25:44.400Z,16.66
2019-02-17T01:26:24.990Z,16.64
2019-02-17T01:27:05.620Z,16.63
2019-02-17T01:27:46.230Z,16.66
2019-02-17T01:28:26.855Z,16.68
2019-02-17T01:29:07.451Z,16.63
2019-02-17T01:29:48.062Z,16.63
2019-02-17T01:30:28.659Z,16.67
2019-02-17T01:31:09.252Z,16.66
2019-02-17T01:31:49.856Z,16.66
2019-02-17T01:32:30.498Z,16.63
2019-02-17T01:33:11.098Z,16.61
2019-02-17T01:33:51.678Z,16.7
2019-02-17T01:34:32.270Z,16.61
2019-02-17T01:35:12.866Z,16.67
2019-02-17T01:35:53.510Z,16.61
2019-02-17T01:36:34.108Z,16.66
2019-02-17T01:37:14.692Z,16.66
2019-02-17T01:37:55.277Z,16.66
2019-02-17T01:38:35.864Z,16.66
2019-02-17T01:39:16.577Z,16.6
2019-02-17T01:39:57.192Z,16.67
2019-02-17T01:40:37.780Z,16.67
2019-02-17T01:41:18.384Z,16.63
2019-02-17T01:41:58.961Z,16.64
2019-02-17T01:42:39.557Z,16.63
2019-02-17T01:43:20.164Z,16.61
2019-02-17T01:44:00.752Z,16.63
2019-02-17T01:44:41.351Z,16.64
2019-02-17T01:45:21.942Z,16.6
2019-02-17T01:46:02.540Z,16.61
2019-02-17T01:46:43.131Z,16.58
2019-02-17T01:47:23.737Z,16.58
2019-02-17T01:48:04.329Z,16.64
2019-02-17T01:48:44.965Z,16.64
2019-02-17T01:49:25.561Z,16.66
2019-02-17T01:50:06.161Z,16.61
2019-02-17T01:50:46.775Z,16.61
2019-02-17T01:51:27.411Z,16.61
2019-02-17T01:52:08.015Z,16.64
2019-02-17T01:52:48.605Z,16.6
2019-02-17T01:53:29.227Z,16.63
2019-02-17T01:54:09.811Z,16.61
2019-02-17T01:54:50.414Z,16.63
2019-02-17T01:55:31.001Z,16.67
2019-02-17T01:56:11.609Z,16.61
2019-02-17T01:56:52.203Z,16.6
2019-02-17T01:57:32.797Z,16.67
2019-02-17T01:58:13.390Z,16.58
2019-02-17T01:58:53.975Z,16.63
2019-02-17T01:59:34.578Z,16.63
2019-02-17T02:00:15.179Z,16.61
2019-02-17T02:00:55.767Z,16.61
2019-02-17T02:01:36.369Z,16.64
2019-02-17T02:02:16.975Z,16.61
2019-02-17T02:02:57.624Z,16.61
2019-02-17T02:03:38.216Z,16.56
2019-02-17T02:04:18.802Z,16.61
2019-02-17T02:04:59.392Z,16.57
2019-02-17T02:05:40.049Z,16.58
2019-02-17T02:06:20.588Z,16.6
2019-02-17T02:07:01.192Z,16.6
2019-02-17T02:07:41.788Z,16.63
2019-02-17T02:08:22.377Z,16.63
2019-02-17T02:09:02.970Z,16.57
2019-02-17T02:09:43.564Z,16.61
2019-02-17T02:10:24.144Z,16.61
2019-02-17T02:11:04.737Z,16.58
2019-02-17T02:11:45.318Z,16.61
2019-02-17T02:12:25.914Z,16.61
2019-02-17T02:13:06.526Z,16.61
2019-02-17T02:13:47.128Z,16.66
2019-02-17T02:14:27.726Z,16.58
2019-02-17T02:15:08.321Z,16.57
2019-02-17T02:15:48.914Z,16.57
2019-02-17T02:16:29.508Z,16.56
2019-02-17T02:17:10.107Z,16.61
2019-02-17T02:17:50.720Z,16.53
2019-02-17T02:18:31.330Z,16.57
2019-02-17T02:19:11.948Z,16.56
2019-02-17T02:19:52.556Z,16.53
2019-02-17T02:20:33.143Z,16.58
2019-02-17T02:21:13.756Z,16.64
2019-02-17T02:21:54.355Z,16.56
2019-02-17T02:22:34.944Z,16.57
2019-02-17T02:23:15.556Z,16.57
2019-02-17T02:23:56.172Z,16.6
2019-02-17T02:24:36.776Z,16.56
2019-02-17T02:25:17.358Z,16.58
2019-02-17T02:25:57.950Z,16.57
2019-02-17T02:26:38.562Z,16.56
2019-02-17T02:27:19.154Z,16.58
2019-02-17T02:27:59.761Z,16.61
2019-02-17T02:28:40.376Z,16.57
2019-02-17T02:29:20.964Z,16.56
2019-02-17T02:30:01.738Z,16.56
2019-02-17T02:30:42.168Z,16.58
2019-02-17T02:31:22.774Z,16.58
2019-02-17T02:32:03.389Z,16.57
2019-02-17T02:32:43.981Z,16.53
2019-02-17T02:33:24.591Z,16.6
2019-02-17T02:34:05.187Z,16.57
2019-02-17T02:34:45.778Z,16.56
2019-02-17T02:35:26.382Z,16.57
2019-02-17T02:36:06.977Z,16.57
2019-02-17T02:36:47.575Z,16.48
2019-02-17T02:37:28.184Z,16.48
2019-02-17T02:38:08.819Z,16.56
2019-02-17T02:38:49.417Z,16.58
2019-02-17T02:39:30.019Z,16.58
2019-02-17T02:40:10.617Z,16.57
2019-02-17T02:40:51.217Z,16.6
2019-02-17T02:41:34.518Z,16.58
2019-02-17T02:42:12.413Z,16.56
2019-02-17T02:42:53.001Z,16.53
2019-02-17T02:43:33.599Z,16.52
2019-02-17T02:44:14.234Z,16.61
2019-02-17T02:44:54.817Z,16.56
2019-02-17T02:45:35.407Z,16.57
2019-02-17T02:46:16.000Z,16.6
2019-02-17T02:46:56.611Z,16.58
2019-02-17T02:47:37.195Z,16.53
2019-02-17T02:48:17.836Z,16.49
2019-02-17T02:48:58.423Z,16.56
2019-02-17T02:49:39.011Z,16.49
2019-02-17T02:50:19.631Z,16.53
2019-02-17T02:51:00.233Z,16.53
2019-02-17T02:51:40.819Z,16.66
2019-02-17T02:52:21.407Z,16.46
2019-02-17T02:53:01.997Z,16.6
2019-02-17T02:53:42.609Z,16.57
2019-02-17T02:54:23.205Z,16.5
2019-02-17T02:55:03.823Z,16.49
2019-02-17T02:55:44.411Z,16.57
2019-02-17T02:56:25.008Z,16.48
2019-02-17T02:57:05.602Z,16.58
2019-02-17T02:57:46.198Z,16.46
2019-02-17T02:58:26.795Z,16.46
2019-02-17T02:59:07.386Z,16.5
2019-02-17T02:59:52.290Z,16.5
2019-02-17T03:00:28.591Z,16.46
2019-02-17T03:01:09.176Z,16.53
2019-02-17T03:01:49.765Z,16.49
2019-02-17T03:02:30.349Z,16.49
2019-02-17T03:03:10.951Z,16.52
2019-02-17T03:03:51.543Z,16.57
2019-02-17T03:04:32.135Z,16.53
2019-02-17T03:05:12.723Z,16.64
2019-02-17T03:05:53.323Z,16.49
2019-02-17T03:06:33.911Z,16.49
2019-02-17T03:07:14.493Z,16.52
2019-02-17T03:07:55.095Z,16.52
2019-02-17T03:08:35.694Z,16.53
2019-02-17T03:09:16.290Z,16.61
2019-02-17T03:09:56.877Z,16.5
2019-02-17T03:10:37.479Z,16.53
2019-02-17T03:11:18.083Z,16.5
2019-02-17T03:11:58.667Z,16.48
2019-02-17T03:12:39.259Z,16.45
2019-02-17T03:13:19.843Z,16.49
2019-02-17T03:14:00.454Z,16.53
2019-02-17T03:14:41.047Z,16.5
2019-02-17T03:15:21.664Z,16.46
2019-02-17T03:16:02.263Z,16.57
2019-02-17T03:16:42.847Z,16.49
2019-02-17T03:17:23.498Z,16.48
2019-02-17T03:18:04.073Z,16.5
2019-02-17T03:18:44.654Z,16.45
2019-02-17T03:19:25.256Z,16.5
2019-02-17T03:20:05.845Z,16.49
2019-02-17T03:20:46.437Z,16.57
2019-02-17T03:21:27.023Z,16.49
2019-02-17T03:22:07.621Z,16.48
2019-02-17T03:22:48.209Z,16.49
2019-02-17T03:23:28.796Z,16.49
2019-02-17T03:24:09.413Z,16.53
2019-02-17T03:24:50.005Z,16.48
2019-02-17T03:25:30.606Z,16.49
2019-02-17T03:26:11.212Z,16.49
2019-02-17T03:26:51.850Z,16.5
2019-02-17T03:27:32.439Z,16.45
2019-02-17T03:28:13.026Z,16.49
2019-02-17T03:28:53.625Z,16.5
2019-02-17T03:29:34.227Z,16.46
2019-02-17T03:30:14.813Z,16.48
2019-02-17T03:30:55.393Z,16.5
2019-02-17T03:31:35.991Z,16.56
2019-02-17T03:32:16.631Z,16.56
2019-02-17T03:32:57.197Z,16.49
2019-02-17T03:33:37.791Z,16.49
2019-02-17T03:34:18.406Z,16.49
2019-02-17T03:34:58.991Z,16.48
2019-02-17T03:35:39.586Z,16.48
2019-02-17T03:36:20.167Z,16.53
2019-02-17T03:37:00.765Z,16.48
2019-02-17T03:37:41.358Z,16.49
2019-02-17T03:38:21.951Z,16.52
2019-02-17T03:39:02.546Z,16.5
2019-02-17T03:39:43.153Z,16.49
2019-02-17T03:40:23.759Z,16.53
2019-02-17T03:41:04.358Z,16.46
2019-02-17T03:41:44.975Z,16.53
2019-02-17T03:42:25.642Z,16.52
2019-02-17T03:43:06.255Z,16.56
2019-02-17T03:44:01.673Z,16.49
2019-02-17T03:44:42.261Z,16.43
2019-02-17T03:45:22.866Z,16.49
2019-02-17T03:46:03.452Z,16.53
2019-02-17T03:46:44.052Z,16.49
2019-02-17T03:47:24.632Z,16.46
2019-02-17T03:48:05.224Z,16.49
2019-02-17T03:48:45.870Z,16.46
2019-02-17T03:49:26.481Z,16.56
2019-02-17T03:50:07.086Z,16.52
2019-02-17T03:50:47.692Z,16.48
2019-02-17T03:51:28.290Z,16.53
2019-02-17T03:52:08.908Z,16.49
2019-02-17T03:52:49.491Z,16.5
2019-02-17T03:53:30.077Z,16.49
2019-02-17T03:54:10.689Z,16.49
2019-02-17T03:54:51.257Z,16.53
2019-02-17T03:55:31.854Z,16.45
2019-02-17T03:56:12.436Z,16.48
2019-02-17T03:56:53.052Z,16.48
2019-02-17T03:57:33.661Z,16.45
2019-02-17T03:58:14.252Z,16.56
2019-02-17T03:58:54.855Z,16.5
2019-02-17T03:59:35.467Z,16.48
2019-02-17T04:00:17.395Z,16.53
2019-02-17T04:00:56.667Z,16.49
2019-02-17T04:01:37.262Z,16.45
2019-02-17T04:02:17.849Z,16.49
2019-02-17T04:02:58.456Z,16.46
2019-02-17T04:03:39.077Z,16.48
2019-02-17T04:04:19.675Z,16.5
2019-02-17T04:05:00.438Z,16.46
2019-02-17T04:05:40.885Z,16.48
2019-02-17T04:06:21.486Z,16.48
2019-02-17T04:07:02.093Z,16.5
2019-02-17T04:07:42.686Z,16.49
2019-02-17T04:08:23.276Z,16.52
2019-02-17T04:09:03.872Z,16.48
2019-02-17T04:09:44.922Z,16.48
2019-02-17T04:10:25.511Z,16.52
2019-02-17T04:11:06.110Z,16.48
2019-02-17T04:11:46.700Z,16.46
2019-02-17T04:12:27.298Z,16.49
2019-02-17T04:13:07.914Z,16.48
2019-02-17T04:13:48.505Z,16.45
2019-02-17T04:14:29.115Z,16.49
2019-02-17T04:15:09.706Z,16.52
2019-02-17T04:15:50.324Z,16.49
2019-02-17T04:16:30.942Z,16.49
2019-02-17T04:17:11.539Z,16.48
2019-02-17T04:17:52.160Z,16.43
2019-02-17T04:18:32.762Z,16.52
2019-02-17T04:19:13.359Z,16.5
2019-02-17T04:19:53.954Z,16.5
2019-02-17T04:20:34.545Z,16.45
2019-02-17T04:21:15.139Z,16.42
2019-02-17T04:21:55.722Z,16.49
2019-02-17T04:22:36.332Z,16.45
2019-02-17T04:23:16.922Z,16.45
2019-02-17T04:23:57.515Z,16.49
2019-02-17T04:24:38.092Z,16.46
2019-02-17T04:25:18.675Z,16.46
2019-02-17T04:25:59.292Z,16.5
2019-02-17T04:26:39.899Z,16.46
2019-02-17T04:27:20.491Z,16.46
2019-02-17T04:28:01.087Z,16.46
2019-02-17T04:28:41.700Z,16.49
2019-02-17T04:29:22.297Z,16.48
2019-02-17T04:30:02.889Z,16.46
2019-02-17T04:30:43.475Z,16.45
2019-02-17T04:31:24.119Z,16.45
2019-02-17T04:32:04.727Z,16.46
2019-02-17T04:32:45.340Z,16.42
2019-02-17T04:33:25.964Z,16.46
2019-02-17T04:34:06.594Z,16.45
2019-02-17T04:34:47.191Z,16.42
2019-02-17T04:35:27.802Z,16.45
2019-02-17T04:36:08.416Z,16.48
2019-02-17T04:36:49.008Z,16.48
2019-02-17T04:37:29.586Z,16.45
2019-02-17T04:38:10.185Z,16.41
2019-02-17T04:38:50.821Z,16.41
2019-02-17T04:39:31.428Z,16.41
2019-02-17T04:40:11.999Z,16.48
2019-02-17T04:40:52.594Z,16.38
2019-02-17T04:41:33.210Z,16.43
2019-02-17T04:42:13.801Z,16.43
2019-02-17T04:42:54.386Z,16.48
2019-02-17T04:43:34.969Z,16.39
2019-02-17T04:44:15.604Z,16.41
2019-02-17T04:44:56.206Z,16.49
2019-02-17T04:45:36.826Z,16.38
2019-02-17T04:46:17.439Z,16.34
2019-02-17T04:46:58.065Z,16.42
2019-02-17T04:47:38.697Z,16.43
2019-02-17T04:48:19.309Z,16.35
2019-02-17T04:48:59.925Z,16.39
2019-02-17T04:49:40.521Z,16.39
2019-02-17T04:50:21.128Z,16.43
2019-02-17T04:51:01.723Z,16.42
2019-02-17T04:51:42.313Z,16.45
2019-02-17T04:52:22.920Z,16.42
2019-02-17T04:53:03.513Z,16.41
2019-02-17T04:53:44.111Z,16.43
2019-02-17T04:54:24.703Z,16.49
2019-02-17T04:55:05.338Z,16.33
2019-02-17T04:55:45.922Z,16.45
2019-02-17T04:56:26.514Z,16.45
2019-02-17T04:57:07.111Z,16.46
2019-02-17T04:57:47.713Z,16.38
2019-02-17T04:58:28.321Z,16.46
2019-02-17T04:59:08.921Z,16.39
2019-02-17T04:59:49.535Z,16.43
2019-02-17T05:00:39.429Z,16.39
2019-02-17T05:01:10.738Z,16.48
2019-02-17T05:01:51.319Z,16.48
2019-02-17T05:02:31.925Z,16.35
2019-02-17T05:03:12.541Z,16.39
2019-02-17T05:03:53.133Z,16.34
2019-02-17T05:04:33.724Z,16.33
2019-02-17T05:05:14.308Z,16.48
2019-02-17T05:05:54.896Z,16.42
2019-02-17T05:06:35.508Z,16.34
2019-02-17T05:07:16.105Z,16.3
2019-02-17T05:07:56.697Z,16.34
2019-02-17T05:08:37.301Z,16.39
2019-02-17T05:09:17.905Z,16.38
2019-02-17T05:09:58.515Z,16.43
2019-02-17T05:10:39.167Z,16.39
2019-02-17T05:11:19.765Z,16.35
2019-02-17T05:12:00.380Z,16.45
2019-02-17T05:12:41.194Z,16.38
2019-02-17T05:13:21.669Z,16.45
2019-02-17T05:14:02.291Z,16.41
2019-02-17T05:14:42.877Z,16.38
2019-02-17T05:15:23.496Z,16.34
2019-02-17T05:16:04.093Z,16.41
2019-02-17T05:16:44.691Z,16.41
2019-02-17T05:17:25.278Z,16.39
2019-02-17T05:18:05.879Z,16.39
2019-02-17T05:18:46.569Z,16.41
2019-02-17T05:19:27.137Z,16.34
2019-02-17T05:20:07.733Z,16.33
2019-02-17T05:20:48.342Z,16.38
2019-02-17T05:21:28.935Z,16.38
2019-02-17T05:22:09.527Z,16.33
2019-02-17T05:22:50.120Z,16.34
2019-02-17T05:23:30.714Z,16.42
2019-02-17T05:24:11.329Z,16.34
2019-02-17T05:24:51.923Z,16.38
2019-02-17T05:25:32.515Z,16.35
2019-02-17T05:26:13.101Z,16.38
2019-02-17T05:26:53.698Z,16.39
2019-02-17T05:27:34.283Z,16.41
2019-02-17T05:28:14.897Z,16.39
2019-02-17T05:28:56.546Z,16.43
2019-02-17T05:29:36.135Z,16.38
2019-02-17T05:30:16.693Z,16.35
2019-02-17T05:30:57.283Z,16.35
2019-02-17T05:31:37.872Z,16.41
2019-02-17T05:32:18.481Z,16.35
2019-02-17T05:32:59.177Z,16.31
2019-02-17T05:33:39.682Z,16.33
2019-02-17T05:34:20.275Z,16.41
2019-02-17T05:35:00.892Z,16.41
2019-02-17T05:35:41.504Z,16.39
2019-02-17T05:36:22.155Z,16.35
2019-02-17T05:37:02.830Z,16.31
2019-02-17T05:37:43.375Z,16.39
2019-02-17T05:38:23.987Z,16.33
2019-02-17T05:39:04.607Z,16.35
2019-02-17T05:39:45.203Z,16.42
2019-02-17T05:40:25.805Z,16.28
2019-02-17T05:41:06.409Z,16.35
2019-02-17T05:41:46.995Z,16.31
2019-02-17T05:42:27.606Z,16.43
2019-02-17T05:43:08.223Z,16.3
2019-02-17T05:43:48.824Z,16.41
2019-02-17T05:44:29.415Z,16.33
2019-02-17T05:45:10.033Z,16.34
2019-02-17T05:45:50.660Z,16.35
2019-02-17T05:46:31.286Z,16.35
2019-02-17T05:47:11.878Z,16.39
2019-02-17T05:47:52.477Z,16.31
2019-02-17T05:48:33.100Z,16.34
2019-02-17T05:49:13.686Z,16.39
2019-02-17T05:49:54.314Z,16.34
2019-02-17T05:50:34.907Z,16.34
2019-02-17T05:51:15.503Z,16.33
2019-02-17T05:51:56.096Z,16.31
2019-02-17T05:52:36.687Z,16.38
2019-02-17T05:53:17.276Z,16.35
2019-02-17T05:53:57.871Z,16.35
2019-02-17T05:54:38.493Z,16.34
2019-02-17T05:55:19.111Z,16.42
2019-02-17T05:55:59.740Z,16.38
2019-02-17T05:56:40.343Z,16.34
2019-02-17T05:57:20.935Z,16.38
2019-02-17T05:58:01.537Z,16.35
2019-02-17T05:58:42.179Z,16.28
2019-02-17T05:59:22.790Z,16.34
2019-02-17T06:00:03.391Z,16.33
2019-02-17T06:00:44.060Z,16.28
2019-02-17T06:01:24.650Z,16.33
2019-02-17T06:02:05.246Z,16.31
2019-02-17T06:02:45.836Z,16.38
2019-02-17T06:03:26.411Z,16.31
2019-02-17T06:04:07.018Z,16.28
2019-02-17T06:04:47.618Z,16.38
2019-02-17T06:05:28.207Z,16.34
2019-02-17T06:06:08.842Z,16.27
2019-02-17T06:06:49.477Z,16.28
2019-02-17T06:07:30.071Z,16.34
2019-02-17T06:08:10.655Z,16.39
2019-02-17T06:08:51.292Z,16.38
2019-02-17T06:09:31.910Z,16.38
2019-02-17T06:10:12.494Z,16.41
2019-02-17T06:10:53.083Z,16.33
2019-02-17T06:11:33.706Z,16.34
2019-02-17T06:12:14.987Z,16.28
2019-02-17T06:12:55.592Z,16.34
2019-02-17T06:13:36.201Z,16.38
2019-02-17T06:14:16.768Z,16.25
2019-02-17T06:14:57.359Z,16.3
2019-02-17T06:15:37.962Z,16.28
2019-02-17T06:16:18.560Z,16.27
2019-02-17T06:16:59.164Z,16.25
2019-02-17T06:17:39.774Z,16.35
2019-02-17T06:18:20.443Z,16.31
2019-02-17T06:19:01.067Z,16.24
2019-02-17T06:19:41.675Z,16.34
2019-02-17T06:20:22.276Z,16.28
2019-02-17T06:21:02.873Z,16.25
2019-02-17T06:21:43.478Z,16.27
2019-02-17T06:22:24.094Z,16.25
2019-02-17T06:23:04.707Z,16.3
2019-02-17T06:23:45.350Z,16.28
2019-02-17T06:24:25.946Z,16.25
2019-02-17T06:25:06.534Z,16.27
2019-02-17T06:25:47.134Z,16.23
2019-02-17T06:26:27.757Z,16.27
2019-02-17T06:27:08.362Z,16.24
2019-02-17T06:27:48.956Z,16.24
2019-02-17T06:28:29.579Z,16.24
2019-02-17T06:29:10.169Z,16.25
2019-02-17T06:29:50.790Z,16.31
2019-02-17T06:30:31.408Z,16.25
2019-02-17T06:31:14.614Z,16.25
2019-02-17T06:31:52.620Z,16.24
2019-02-17T06:32:33.224Z,16.31
2019-02-17T06:33:13.821Z,16.27
2019-02-17T06:33:54.410Z,16.28
2019-02-17T06:34:35.018Z,16.34
2019-02-17T06:35:15.634Z,16.33
2019-02-17T06:35:56.226Z,16.25
2019-02-17T06:36:36.906Z,16.25
2019-02-17T06:37:17.454Z,16.25
2019-02-17T06:37:58.042Z,16.28
2019-02-17T06:38:38.666Z,16.25
2019-02-17T06:39:19.260Z,16.23
2019-02-17T06:39:59.852Z,16.24
2019-02-17T06:40:40.440Z,16.27
2019-02-17T06:41:21.114Z,16.25
2019-02-17T06:42:01.630Z,16.34
2019-02-17T06:42:42.234Z,16.28
2019-02-17T06:43:22.852Z,16.27
2019-02-17T06:44:03.432Z,16.23
2019-02-17T06:44:44.028Z,16.25
2019-02-17T06:45:24.632Z,16.24
2019-02-17T06:46:05.242Z,16.24
2019-02-17T06:46:45.826Z,16.27
2019-02-17T06:47:26.434Z,16.41
2019-02-17T06:48:07.002Z,16.34
2019-02-17T06:48:47.598Z,16.3
2019-02-17T06:49:28.188Z,16.25
2019-02-17T06:50:08.820Z,16.27
2019-02-17T06:50:49.440Z,16.35
2019-02-17T06:51:30.024Z,16.34
2019-02-17T06:52:10.634Z,16.24
2019-02-17T06:52:51.240Z,16.24
2019-02-17T06:53:31.837Z,16.25
2019-02-17T06:54:12.434Z,16.25
2019-02-17T06:54:53.030Z,16.33
2019-02-17T06:55:33.629Z,16.28
2019-02-17T06:56:14.249Z,16.3
2019-02-17T06:56:55.446Z,16.35
2019-02-17T06:57:36.062Z,16.25
2019-02-17T06:58:16.659Z,16.27
2019-02-17T06:58:57.310Z,16.28
2019-02-17T06:59:37.927Z,16.33
2019-02-17T07:00:18.574Z,16.24
2019-02-17T07:00:59.197Z,16.25
2019-02-17T07:01:39.820Z,16.33
2019-02-17T07:02:20.624Z,16.27
2019-02-17T07:03:01.247Z,16.27
2019-02-17T07:03:41.842Z,16.35
2019-02-17T07:04:22.470Z,16.34
2019-02-17T07:05:03.118Z,16.27
2019-02-17T07:05:43.682Z,16.25
2019-02-17T07:06:24.359Z,16.25
2019-02-17T07:07:04.900Z,16.31
2019-02-17T07:07:45.513Z,16.25
2019-02-17T07:08:26.082Z,16.3
2019-02-17T07:09:07.034Z,16.38
2019-02-17T07:09:47.632Z,16.33
2019-02-17T07:10:28.222Z,16.27
2019-02-17T07:11:08.812Z,16.38
2019-02-17T07:11:49.403Z,16.39
2019-02-17T07:12:29.985Z,16.31
2019-02-17T07:13:10.574Z,16.24
2019-02-17T07:13:51.169Z,16.24
2019-02-17T07:14:31.882Z,16.28
2019-02-17T07:15:12.672Z,16.25
2019-02-17T07:15:53.264Z,16.34
2019-02-17T07:16:33.868Z,16.34
2019-02-17T07:17:14.481Z,16.34
2019-02-17T07:17:55.074Z,16.27
2019-02-17T07:18:35.679Z,16.3
2019-02-17T07:19:16.289Z,16.23
2019-02-17T07:19:56.884Z,16.27
2019-02-17T07:20:37.481Z,16.3
2019-02-17T07:21:18.097Z,16.3
2019-02-17T07:21:58.678Z,16.41
2019-02-17T07:22:39.290Z,16.27
2019-02-17T07:23:19.892Z,16.38
2019-02-17T07:24:00.484Z,16.34
2019-02-17T07:24:41.087Z,16.31
2019-02-17T07:25:29.564Z,16.35
2019-02-17T07:26:02.285Z,16.31
2019-02-17T07:26:42.888Z,16.39
2019-02-17T07:27:23.473Z,16.33
2019-02-17T07:28:04.053Z,16.31
2019-02-17T07:28:44.660Z,16.31
2019-02-17T07:29:25.237Z,16.3
2019-02-17T07:30:05.828Z,16.31
2019-02-17T07:30:46.424Z,16.34
2019-02-17T07:31:34.553Z,16.41
2019-02-17T07:32:07.607Z,16.38
2019-02-17T07:32:48.205Z,16.38
2019-02-17T07:33:28.796Z,16.33
2019-02-17T07:34:09.394Z,16.3
2019-02-17T07:34:49.980Z,16.35
2019-02-17T07:35:30.581Z,16.42
2019-02-17T07:36:11.175Z,16.31
2019-02-17T07:36:51.770Z,16.38
2019-02-17T07:37:33.629Z,16.38
2019-02-17T07:38:12.981Z,16.39
2019-02-17T07:38:53.570Z,16.34
2019-02-17T07:39:34.194Z,16.35
2019-02-17T07:40:14.793Z,16.42
2019-02-17T07:40:55.388Z,16.41
2019-02-17T07:41:35.994Z,16.3
2019-02-17T07:42:16.611Z,16.38
2019-02-17T07:42:57.256Z,16.34
2019-02-17T07:43:37.874Z,16.33
2019-02-17T07:44:18.479Z,16.31
2019-02-17T07:44:59.088Z,16.33
2019-02-17T07:45:39.687Z,16.34
2019-02-17T07:46:20.293Z,16.33
2019-02-17T07:47:00.893Z,16.34
2019-02-17T07:47:41.525Z,16.31
2019-02-17T07:48:22.139Z,16.33
2019-02-17T07:49:02.777Z,16.33
2019-02-17T07:49:43.388Z,16.3
2019-02-17T07:50:24.015Z,16.3
2019-02-17T07:51:04.620Z,16.31
2019-02-17T07:51:45.209Z,16.28
2019-02-17T07:52:25.809Z,16.39
2019-02-17T07:53:06.442Z,16.35
2019-02-17T07:53:47.024Z,16.31
2019-02-17T07:54:27.631Z,16.31
2019-02-17T07:55:08.221Z,16.35
2019-02-17T07:55:48.843Z,16.39
2019-02-17T07:56:29.473Z,16.34
2019-02-17T07:57:10.095Z,16.31
2019-02-17T07:57:50.675Z,16.38
2019-02-17T07:58:31.275Z,16.33
2019-02-17T07:59:11.888Z,16.31
2019-02-17T07:59:52.477Z,16.34
2019-02-17T08:00:33.079Z,16.39
2019-02-17T08:01:13.683Z,16.34
2019-02-17T08:01:54.289Z,16.35
2019-02-17T08:02:34.915Z,16.33
2019-02-17T08:03:15.515Z,16.3
2019-02-17T08:03:56.117Z,16.33
2019-02-17T08:04:36.713Z,16.31
2019-02-17T08:05:17.309Z,16.43
2019-02-17T08:05:57.923Z,16.33
2019-02-17T08:06:38.519Z,16.3
2019-02-17T08:07:19.115Z,16.35
2019-02-17T08:07:59.744Z,16.38
2019-02-17T08:08:40.301Z,16.33
2019-02-17T08:09:20.903Z,16.3
2019-02-17T08:10:01.512Z,16.38
2019-02-17T08:10:42.115Z,16.3
2019-02-17T08:11:22.714Z,16.41
2019-02-17T08:12:03.327Z,16.35
2019-02-17T08:12:43.898Z,16.38
2019-02-17T08:13:24.493Z,16.34
2019-02-17T08:14:05.105Z,16.35
2019-02-17T08:14:45.849Z,16.34
2019-02-17T08:15:26.481Z,16.35
2019-02-17T08:16:07.215Z,16.33
2019-02-17T08:16:47.895Z,16.35
2019-02-17T08:17:28.477Z,16.34
2019-02-17T08:18:09.248Z,16.33
2019-02-17T08:18:49.834Z,16.38
2019-02-17T08:19:30.433Z,16.38
2019-02-17T08:20:11.026Z,16.41
2019-02-17T08:20:51.615Z,16.28
2019-02-17T08:21:32.209Z,16.43
2019-02-17T08:22:12.855Z,16.35
2019-02-17T08:22:53.464Z,16.34
2019-02-17T08:23:34.081Z,16.34
2019-02-17T08:24:14.671Z,16.33
2019-02-17T08:24:55.276Z,16.38
2019-02-17T08:25:35.874Z,16.38
2019-02-17T08:26:16.463Z,16.41
2019-02-17T08:26:57.142Z,16.35
2019-02-17T08:27:37.801Z,16.35
2019-02-17T08:28:18.479Z,16.35
2019-02-17T08:28:59.088Z,16.35
2019-02-17T08:29:39.716Z,16.43
2019-02-17T08:30:20.869Z,16.38
2019-02-17T08:31:01.449Z,16.33
2019-02-17T08:31:42.078Z,16.35
2019-02-17T08:32:22.631Z,16.43
2019-02-17T08:33:03.284Z,16.43
2019-02-17T08:34:53.346Z,16.43
2019-02-17T08:35:33.886Z,16.45
2019-02-17T08:36:14.482Z,16.46
2019-02-17T08:36:55.075Z,16.38
2019-02-17T08:37:35.690Z,16.46
2019-02-17T08:38:16.277Z,16.45
2019-02-17T08:38:56.942Z,16.45
2019-02-17T08:39:37.507Z,16.43
2019-02-17T08:40:18.119Z,16.45
2019-02-17T08:41:00.744Z,16.45
2019-02-17T08:41:39.306Z,16.38
2019-02-17T08:42:19.903Z,16.46
2019-02-17T08:43:00.499Z,16.46
2019-02-17T08:43:41.077Z,16.52
2019-02-17T08:44:22.271Z,16.43
2019-02-17T08:45:03.470Z,16.43
2019-02-17T08:45:44.443Z,16.43